Time;durP1;ratioP1;P1;durP2;ratioP2;P2;SDS_P1;SDS_P2;PMS_P1;PMS_P2;Temp;Humidity;BMP_temperature;BMP_pressure;BME280_temperature;BME280_humidity;BME280_pressure;Samples;Min_cycle;Max_cycle;Signal;HPM_P1;HPM_P2
2023/08/19 00:01:03;;;;;;;17.17;15.48;;;22.20;29.80;;;;;;5031967;28;20482;-72
2023/08/19 00:03:30;;;;;;;16.73;14.23;;;22.20;30.20;;;;;;5033741;28;20411;-72
2023/08/19 00:05:58;;;;;;;16.27;14.57;;;22.20;30.20;;;;;;5032331;28;20937;-72
2023/08/19 00:08:24;;;;;;;15.60;14.05;;;22.20;29.70;;;;;;5032607;28;20407;-72
2023/08/19 00:10:49;;;;;;;16.30;14.70;;;22.20;30.00;;;;;;5030482;28;21024;-72
2023/08/19 00:13:15;;;;;;;15.77;14.20;;;22.20;29.90;;;;;;5033336;28;20421;-72
2023/08/19 00:15:40;;;;;;;15.63;13.93;;;22.10;30.20;;;;;;5014411;28;20496;-72
2023/08/19 00:18:06;;;;;;;15.43;13.83;;;22.10;30.70;;;;;;5035402;28;20415;-72
2023/08/19 00:20:32;;;;;;;16.83;13.77;;;22.10;31.90;;;;;;5032270;28;20937;-72
2023/08/19 00:22:59;;;;;;;15.55;13.60;;;22.10;32.20;;;;;;5034742;28;20432;-72
2023/08/19 00:25:25;;;;;;;15.27;13.73;;;22.10;33.70;;;;;;5032131;28;20461;-72
2023/08/19 00:27:54;;;;;;;15.15;13.57;;;22.10;33.40;;;;;;5031510;28;20849;-71
2023/08/19 00:30:20;;;;;;;17.33;14.55;;;22.10;34.30;;;;;;5030037;28;20403;-72
2023/08/19 00:32:46;;;;;;;16.02;14.38;;;22.10;36.00;;;;;;5031690;28;20940;-72
2023/08/19 00:35:13;;;;;;;15.13;13.52;;;22.10;35.50;;;;;;5049902;28;20405;-72
2023/08/19 00:37:39;;;;;;;15.45;13.93;;;22.10;35.50;;;;;;5046789;28;20838;-71
2023/08/19 00:40:05;;;;;;;16.13;14.48;;;22.10;36.90;;;;;;5038326;28;20493;-72
2023/08/19 00:42:31;;;;;;;16.52;14.27;;;22.10;37.30;;;;;;5034220;28;20438;-72
2023/08/19 00:44:57;;;;;;;18.40;14.27;;;22.10;36.30;;;;;;5029427;28;20469;-72
2023/08/19 00:47:24;;;;;;;16.13;14.52;;;22.00;36.30;;;;;;5027512;28;20418;-72
2023/08/19 00:49:50;;;;;;;15.82;14.27;;;22.00;37.60;;;;;;5029286;28;20411;-71
2023/08/19 00:52:17;;;;;;;17.02;15.27;;;22.00;38.60;;;;;;5029993;28;20779;-72
2023/08/19 00:54:43;;;;;;;17.08;15.27;;;22.00;38.90;;;;;;5029954;28;20827;-72
2023/08/19 00:57:09;;;;;;;16.75;14.95;;;22.00;40.10;;;;;;5031355;28;20390;-72
2023/08/19 00:59:37;;;;;;;17.03;15.17;;;22.00;39.70;;;;;;5029705;28;20467;-72
2023/08/19 01:02:03;;;;;;;18.33;15.48;;;22.00;39.20;;;;;;5030749;28;20500;-72
2023/08/19 01:04:29;;;;;;;17.40;15.67;;;21.90;39.60;;;;;;4996028;28;20426;-72
2023/08/19 01:06:59;;;;;;;16.92;15.15;;;21.90;40.30;;;;;;5032415;28;20477;-73
2023/08/19 01:09:38;;;;;;;17.38;15.63;;;21.90;40.30;;;;;;5013808;28;20407;-72
2023/08/19 01:12:29;;;;;;;17.40;15.52;;;21.90;40.40;;;;;;5033672;28;20418;-72
2023/08/19 01:15:03;;;;;;;17.85;15.95;;;21.90;42.30;;;;;;5033978;28;20421;-72
2023/08/19 01:17:31;;;;;;;19.00;16.23;;;21.90;43.10;;;;;;5030761;28;20423;-72
2023/08/19 01:19:57;;;;;;;17.90;16.00;;;21.80;43.40;;;;;;5035179;28;20468;-73
2023/08/19 01:22:56;;;;;;;18.92;16.95;;;21.80;42.90;;;;;;5031484;28;20403;-73
2023/08/19 01:25:22;;;;;;;19.03;16.00;;;21.80;43.30;;;;;;5012749;28;20438;-73
2023/08/19 01:27:48;;;;;;;19.08;17.08;;;21.80;44.10;;;;;;5030670;28;20426;-73
2023/08/19 01:30:14;;;;;;;17.33;15.57;;;21.80;45.10;;;;;;5027777;28;20407;-73
2023/08/19 01:32:41;;;;;;;17.98;16.08;;;21.80;47.30;;;;;;5031316;28;20419;-73
2023/08/19 01:35:07;;;;;;;18.70;16.83;;;21.70;48.40;;;;;;5029411;28;20414;-73
2023/08/19 01:37:45;;;;;;;18.48;16.48;;;21.70;48.40;;;;;;5028170;28;20778;-73
2023/08/19 01:40:13;;;;;;;18.85;16.85;;;21.70;47.90;;;;;;5030620;28;20498;-72
2023/08/19 01:42:39;;;;;;;19.20;17.20;;;21.60;48.30;;;;;;5028774;28;20414;-73
2023/08/19 01:45:09;;;;;;;19.13;17.20;;;21.60;48.20;;;;;;5030240;28;20439;-73
2023/08/19 01:47:38;;;;;;;19.85;17.80;;;21.60;49.40;;;;;;5029251;28;20765;-73
2023/08/19 01:50:06;;;;;;;19.60;17.60;;;21.60;51.20;;;;;;5032201;28;20907;-73
2023/08/19 01:52:32;;;;;;;20.10;18.02;;;21.50;51.30;;;;;;5029038;28;20417;-73
2023/08/19 01:54:58;;;;;;;19.88;17.88;;;21.50;52.10;;;;;;5030114;28;20492;-73
2023/08/19 01:57:27;;;;;;;19.67;17.58;;;21.50;53.50;;;;;;5028523;28;20485;-73
2023/08/19 01:59:54;;;;;;;20.30;18.20;;;21.50;53.30;;;;;;5030230;28;20492;-73
2023/08/19 02:02:23;;;;;;;19.90;17.92;;;21.50;54.50;;;;;;5027358;28;20415;-73
2023/08/19 02:04:49;;;;;;;19.92;17.83;;;21.50;55.40;;;;;;5029367;28;20783;-73
2023/08/19 02:07:14;;;;;;;20.07;17.97;;;21.40;55.30;;;;;;5028429;28;20423;-72
2023/08/19 02:09:40;;;;;;;20.23;18.23;;;21.40;55.70;;;;;;5030062;28;20399;-73
2023/08/19 02:12:07;;;;;;;21.48;19.08;;;21.50;55.00;;;;;;5028183;28;20435;-73
2023/08/19 02:14:33;;;;;;;21.27;19.08;;;21.40;55.10;;;;;;5029921;28;20470;-73
2023/08/19 02:16:59;;;;;;;20.55;18.60;;;21.40;57.70;;;;;;5032606;28;20418;-73
2023/08/19 02:19:24;;;;;;;20.90;18.80;;;21.40;59.30;;;;;;5030692;28;20415;-73
2023/08/19 02:21:50;;;;;;;22.08;18.98;;;21.40;59.40;;;;;;5029046;28;20526;-73
2023/08/19 02:24:16;;;;;;;21.73;19.37;;;21.30;59.30;;;;;;5027161;28;20399;-73
2023/08/19 02:26:41;;;;;;;21.17;18.83;;;21.30;59.00;;;;;;5030804;28;20445;-73
2023/08/19 02:29:07;;;;;;;21.95;19.30;;;21.30;59.60;;;;;;5030263;28;20445;-73
2023/08/19 02:31:32;;;;;;;21.60;19.20;;;21.30;60.20;;;;;;5034375;28;20417;-73
2023/08/19 02:33:58;;;;;;;21.17;18.98;;;21.30;61.20;;;;;;5013709;28;20442;-73
2023/08/19 02:36:24;;;;;;;20.55;18.45;;;21.20;62.00;;;;;;5034828;28;20493;-73
2023/08/19 02:38:49;;;;;;;21.50;19.20;;;21.20;62.80;;;;;;5031213;28;20889;-72
2023/08/19 02:41:15;;;;;;;21.60;19.40;;;21.20;62.80;;;;;;5032724;28;20484;-72
2023/08/19 02:43:41;;;;;;;24.60;19.97;;;21.20;63.40;;;;;;5029234;28;20400;-72
2023/08/19 02:46:06;;;;;;;22.40;20.05;;;21.20;64.70;;;;;;5033040;28;20489;-73
2023/08/19 02:48:32;;;;;;;21.80;19.50;;;21.20;64.30;;;;;;5031177;28;20509;-73
2023/08/19 02:50:57;;;;;;;21.47;19.23;;;21.20;65.70;;;;;;5033068;28;20401;-73
2023/08/19 02:53:23;;;;;;;21.60;19.40;;;21.20;66.30;;;;;;5028229;28;20553;-73
2023/08/19 02:55:52;;;;;;;20.93;18.73;;;21.10;65.60;;;;;;5032695;28;20402;-73
2023/08/19 02:58:18;;;;;;;21.90;19.65;;;21.20;66.80;;;;;;5030058;28;20403;-73
2023/08/19 03:00:50;;;;;;;21.85;19.63;;;21.10;67.70;;;;;;5029752;28;20414;-73
2023/08/19 03:03:16;;;;;;;20.83;18.63;;;21.10;66.20;;;;;;5030377;28;20444;-73
2023/08/19 03:05:41;;;;;;;23.27;19.58;;;21.20;68.60;;;;;;4995621;28;20842;-73
2023/08/19 03:08:08;;;;;;;21.80;19.47;;;21.10;68.10;;;;;;5027870;28;20402;-72
2023/08/19 03:10:35;;;;;;;21.67;19.48;;;21.10;67.70;;;;;;5032495;28;20405;-72
2023/08/19 03:13:01;;;;;;;22.17;19.95;;;21.10;67.40;;;;;;5030460;28;20504;-72
2023/08/19 03:15:27;;;;;;;21.88;19.60;;;21.10;69.30;;;;;;5032970;28;20409;-73
2023/08/19 03:17:53;;;;;;;21.00;18.85;;;21.10;69.90;;;;;;5029037;28;20448;-72
2023/08/19 03:20:18;;;;;;;21.17;18.87;;;21.10;69.10;;;;;;5034250;28;20881;-73
2023/08/19 03:22:44;;;;;;;21.08;18.88;;;21.10;69.20;;;;;;5034977;28;20407;-73
2023/08/19 03:25:11;;;;;;;21.63;19.43;;;21.10;69.40;;;;;;5037434;28;20421;-73
2023/08/19 03:27:37;;;;;;;22.65;19.38;;;21.10;68.80;;;;;;5035201;28;20407;-73
2023/08/19 03:30:04;;;;;;;21.73;19.53;;;21.10;69.50;;;;;;5035648;28;20809;-71
2023/08/19 03:32:30;;;;;;;21.38;19.13;;;21.10;69.50;;;;;;5035070;28;20482;-72
2023/08/19 03:34:56;;;;;;;22.70;20.02;;;21.10;69.30;;;;;;5038841;28;20487;-73
2023/08/19 03:37:22;;;;;;;22.85;19.55;;;21.00;68.60;;;;;;5017339;28;20478;-73
2023/08/19 03:39:47;;;;;;;22.73;20.27;;;21.10;69.20;;;;;;5038276;28;20415;-73
2023/08/19 03:42:13;;;;;;;22.38;19.98;;;21.00;69.70;;;;;;5032648;28;20404;-72
2023/08/19 03:44:38;;;;;;;21.43;19.33;;;21.00;69.70;;;;;;5032511;28;20415;-72
2023/08/19 03:47:04;;;;;;;21.13;19.02;;;21.00;70.50;;;;;;5031799;28;20418;-73
2023/08/19 03:49:30;;;;;;;21.70;18.57;;;21.00;71.10;;;;;;5035038;28;20392;-73
2023/08/19 03:51:55;;;;;;;21.23;19.00;;;21.00;70.30;;;;;;5033617;28;20403;-72
2023/08/19 03:54:21;;;;;;;20.70;18.65;;;21.00;70.60;;;;;;5035010;28;20405;-73
2023/08/19 03:56:46;;;;;;;21.90;19.57;;;21.00;70.00;;;;;;5033272;28;20458;-73
2023/08/19 03:59:12;;;;;;;22.43;19.30;;;21.00;69.70;;;;;;5034989;28;20835;-73
2023/08/19 04:01:39;;;;;;;22.00;19.65;;;21.00;69.70;;;;;;5030679;28;20434;-73
2023/08/19 04:04:07;;;;;;;21.27;19.13;;;21.00;69.90;;;;;;5017216;28;20416;-73
2023/08/19 04:06:33;;;;;;;21.67;19.38;;;21.00;69.70;;;;;;5032795;28;20510;-73
2023/08/19 04:08:58;;;;;;;21.75;19.55;;;21.00;69.40;;;;;;5028917;28;20459;-73
2023/08/19 04:11:24;;;;;;;21.60;19.40;;;20.90;70.10;;;;;;5032823;28;20415;-72
2023/08/19 04:13:50;;;;;;;20.98;18.77;;;21.00;70.60;;;;;;5017117;28;20405;-72
2023/08/19 04:16:16;;;;;;;19.90;17.98;;;21.00;70.90;;;;;;5033061;28;20477;-72
2023/08/19 04:18:41;;;;;;;21.42;19.08;;;21.00;70.80;;;;;;5032322;28;20467;-73
2023/08/19 04:21:09;;;;;;;20.20;18.07;;;21.00;70.40;;;;;;5033801;28;20403;-73
2023/08/19 04:23:35;;;;;;;20.35;18.23;;;21.00;71.00;;;;;;5034076;28;20922;-73
2023/08/19 04:26:01;;;;;;;21.15;18.95;;;21.00;70.60;;;;;;5016011;28;20439;-73
2023/08/19 04:28:27;;;;;;;20.77;18.27;;;21.00;70.40;;;;;;5038120;28;21080;-73
2023/08/19 04:31:00;;;;;;;20.23;17.92;;;21.00;70.50;;;;;;5033694;28;20427;-73
2023/08/19 04:33:26;;;;;;;21.30;18.95;;;21.00;70.40;;;;;;5037209;28;20416;-73
2023/08/19 04:35:52;;;;;;;19.97;17.87;;;21.10;70.00;;;;;;5033955;28;20543;-73
2023/08/19 04:38:17;;;;;;;21.42;18.95;;;21.00;69.10;;;;;;5037443;28;20402;-73
2023/08/19 04:40:43;;;;;;;20.13;18.07;;;21.10;69.90;;;;;;5031871;28;20403;-73
2023/08/19 04:43:08;;;;;;;21.30;18.90;;;21.10;69.50;;;;;;5032649;28;20403;-72
2023/08/19 04:45:34;;;;;;;20.83;18.63;;;21.00;69.50;;;;;;5027981;28;20917;-73
2023/08/19 04:47:59;;;;;;;21.50;19.13;;;21.00;69.00;;;;;;5033134;28;20502;-73
2023/08/19 04:50:25;;;;;;;20.60;18.40;;;21.10;69.40;;;;;;5011978;28;20785;-72
2023/08/19 04:52:51;;;;;;;20.90;18.80;;;21.00;68.60;;;;;;5011872;28;20413;-73
2023/08/19 04:55:16;;;;;;;21.47;19.17;;;21.10;69.20;;;;;;5023684;28;20407;-73
2023/08/19 04:57:42;;;;;;;22.08;18.48;;;21.10;68.90;;;;;;5032061;28;20494;-73
2023/08/19 05:00:12;;;;;;;21.27;18.63;;;21.10;69.00;;;;;;5030907;28;20411;-73
2023/08/19 05:02:38;;;;;;;20.00;17.90;;;21.10;68.80;;;;;;5030302;28;20427;-73
2023/08/19 05:05:04;;;;;;;20.55;18.08;;;21.20;68.70;;;;;;5031497;28;20449;-73
2023/08/19 05:07:30;;;;;;;19.42;17.33;;;21.20;68.20;;;;;;5033016;28;20453;-73
2023/08/19 05:09:56;;;;;;;19.87;17.27;;;21.20;67.90;;;;;;5031875;28;20800;-73
2023/08/19 05:12:23;;;;;;;18.63;16.67;;;21.30;67.60;;;;;;5033207;28;20972;-73
2023/08/19 05:14:49;;;;;;;20.50;17.58;;;21.30;66.10;;;;;;5031157;28;20920;-73
2023/08/19 05:17:14;;;;;;;18.98;16.95;;;21.30;66.40;;;;;;5033395;28;20410;-73
2023/08/19 05:19:41;;;;;;;18.07;16.17;;;21.40;65.70;;;;;;5031714;28;20395;-73
2023/08/19 05:22:06;;;;;;;18.17;16.30;;;21.40;65.00;;;;;;5034664;28;20410;-73
2023/08/19 05:24:32;;;;;;;18.75;16.77;;;21.40;64.00;;;;;;5030989;28;20407;-73
2023/08/19 05:26:59;;;;;;;18.67;15.83;;;21.50;63.10;;;;;;5031052;28;20458;-73
2023/08/19 05:29:24;;;;;;;18.52;16.08;;;21.50;62.40;;;;;;5031508;28;20449;-73
2023/08/19 05:31:50;;;;;;;17.73;15.97;;;21.60;60.30;;;;;;5033632;28;20415;-73
2023/08/19 05:34:16;;;;;;;17.45;15.75;;;21.60;58.50;;;;;;5013128;28;20960;-73
2023/08/19 05:36:41;;;;;;;17.00;15.23;;;21.60;56.30;;;;;;5035529;28;20488;-73
2023/08/19 05:39:07;;;;;;;15.77;14.17;;;21.60;55.60;;;;;;5032327;28;20406;-73
2023/08/19 05:41:33;;;;;;;15.63;14.02;;;21.70;52.80;;;;;;5031574;28;20486;-74
2023/08/19 05:43:59;;;;;;;15.88;14.27;;;21.70;51.30;;;;;;5028345;28;20495;-73
2023/08/19 05:46:25;;;;;;;17.23;14.30;;;21.80;49.80;;;;;;5031344;28;20426;-73
2023/08/19 05:48:50;;;;;;;16.65;14.07;;;21.80;48.50;;;;;;5029883;28;20411;-73
2023/08/19 05:51:16;;;;;;;15.23;13.60;;;21.90;46.50;;;;;;5031939;28;20836;-73
2023/08/19 05:53:42;;;;;;;15.37;13.67;;;21.90;44.70;;;;;;5030283;28;20824;-73
2023/08/19 05:56:07;;;;;;;15.05;13.45;;;22.00;43.20;;;;;;5031626;28;20931;-73
2023/08/19 05:58:33;;;;;;;15.57;13.23;;;22.10;41.90;;;;;;5030187;28;20410;-73
2023/08/19 06:01:00;;;;;;;14.77;13.20;;;22.10;37.90;;;;;;5032456;28;20407;-73
2023/08/19 06:03:26;;;;;;;13.75;12.38;;;22.20;35.00;;;;;;5030820;28;20399;-73
2023/08/19 06:05:51;;;;;;;14.55;12.63;;;22.30;32.50;;;;;;5032059;28;20763;-73
2023/08/19 06:08:17;;;;;;;14.13;12.47;;;22.30;28.90;;;;;;5028925;28;20468;-73
2023/08/19 06:10:46;;;;;;;14.02;12.40;;;22.30;25.30;;;;;;5032168;28;20399;-73
2023/08/19 06:13:12;;;;;;;15.63;12.90;;;22.40;22.50;;;;;;5030338;28;20435;-73
2023/08/19 06:15:39;;;;;;;16.08;13.45;;;22.50;20.90;;;;;;5029799;28;20407;-73
2023/08/19 06:18:05;;;;;;;15.82;14.23;;;22.60;19.80;;;;;;5030349;28;20403;-73
2023/08/19 06:20:31;;;;;;;14.77;13.27;;;22.60;16.50;;;;;;5032330;28;20407;-73
2023/08/19 06:22:57;;;;;;;15.30;13.70;;;22.70;14.70;;;;;;5031192;28;20824;-73
2023/08/19 06:25:23;;;;;;;15.17;13.43;;;22.70;12.80;;;;;;5032600;28;20431;-72
2023/08/19 06:27:49;;;;;;;15.57;13.82;;;22.80;11.70;;;;;;5029897;28;20411;-72
2023/08/19 06:30:14;;;;;;;15.27;13.53;;;22.90;10.60;;;;;;5032500;28;20893;-72
2023/08/19 06:32:40;;;;;;;13.70;12.35;;;22.90;9.20;;;;;;5029963;28;20920;-72
2023/08/19 06:35:06;;;;;;;13.67;12.30;;;23.10;7.40;;;;;;5033007;28;20406;-72
2023/08/19 06:37:40;;;;;;;16.23;12.68;;;23.10;1.50;;;;;;5030678;28;20405;-72
2023/08/19 06:40:09;;;;;;;13.80;12.27;;;23.20;1.00;;;;;;5028607;28;20526;-72
2023/08/19 06:42:39;;;;;;;12.88;11.50;;;23.30;1.00;;;;;;5030987;28;20414;-72
2023/08/19 06:45:06;;;;;;;14.93;12.60;;;23.30;1.00;;;;;;5018287;28;20418;-72
2023/08/19 06:47:33;;;;;;;13.52;12.13;;;23.30;1.00;;;;;;5031450;28;20418;-73
2023/08/19 06:49:59;;;;;;;13.25;11.85;;;23.30;1.00;;;;;;5029883;28;20785;-72
2023/08/19 06:52:25;;;;;;;14.23;12.57;;;23.30;1.00;;;;;;5031293;28;20468;-72
2023/08/19 06:54:51;;;;;;;13.32;11.93;;;23.30;1.00;;;;;;5032688;28;20434;-72
2023/08/19 06:57:27;;;;;;;12.67;11.37;;;23.40;1.00;;;;;;5037172;28;20433;-72
2023/08/19 07:00:05;;;;;;;12.82;11.35;;;23.40;1.00;;;;;;5034226;28;20457;-72
2023/08/19 07:02:35;;;;;;;12.52;11.15;;;23.40;1.00;;;;;;5036083;28;20417;-72
2023/08/19 07:05:02;;;;;;;12.80;10.93;;;23.40;1.00;;;;;;5034143;28;20429;-72
2023/08/19 07:07:29;;;;;;;13.05;11.60;;;23.40;1.00;;;;;;5036141;28;20419;-72
2023/08/19 07:09:55;;;;;;;14.13;11.68;;;23.40;1.00;;;;;;5033451;28;20402;-72
2023/08/19 07:12:21;;;;;;;14.70;11.98;;;23.30;1.00;;;;;;5018986;28;20492;-72
2023/08/19 07:14:47;;;;;;;13.70;11.70;;;23.40;1.00;;;;;;5034524;28;20418;-72
2023/08/19 07:17:16;;;;;;;13.02;11.60;;;23.30;1.00;;;;;;5036025;28;20514;-71
2023/08/19 07:19:43;;;;;;;13.93;12.00;;;23.30;1.00;;;;;;5013622;28;20411;-72
2023/08/19 07:22:09;;;;;;;13.02;11.65;;;23.30;1.00;;;;;;5035333;28;20481;-72
2023/08/19 07:24:35;;;;;;;14.60;11.60;;;23.20;1.00;;;;;;5034033;28;20415;-72
2023/08/19 07:27:05;;;;;;;14.02;11.85;;;23.20;1.00;;;;;;5035170;28;20431;-72
2023/08/19 07:29:30;;;;;;;14.45;11.55;;;23.20;1.00;;;;;;5034726;28;20422;-72
2023/08/19 07:31:57;;;;;;;12.20;10.93;;;23.20;1.00;;;;;;5034652;28;20407;-72
2023/08/19 07:34:23;;;;;;;12.75;11.20;;;23.20;1.00;;;;;;5034998;28;20395;-72
2023/08/19 07:36:49;;;;;;;13.10;11.80;;;23.20;1.00;;;;;;5036494;28;20403;-72
2023/08/19 07:39:15;;;;;;;13.02;10.95;;;23.20;1.00;;;;;;5035165;28;20399;-72
2023/08/19 07:41:40;;;;;;;16.47;11.90;;;23.20;1.00;;;;;;5033781;28;20751;-72
2023/08/19 07:44:06;;;;;;;13.40;11.27;;;23.20;1.00;;;;;;5030948;28;20473;-72
2023/08/19 07:46:32;;;;;;;13.73;11.33;;;23.20;1.00;;;;;;5032740;28;20431;-72
2023/08/19 07:48:59;;;;;;;12.80;10.87;;;23.30;1.00;;;;;;5032768;28;20450;-72
2023/08/19 07:51:24;;;;;;;12.07;10.75;;;23.30;1.00;;;;;;5033644;28;20429;-72
2023/08/19 07:53:50;;;;;;;13.20;10.63;;;23.40;1.00;;;;;;5030458;28;20415;-72
2023/08/19 07:56:17;;;;;;;14.20;10.67;;;23.40;1.00;;;;;;5032530;28;20994;-72
2023/08/19 07:58:43;;;;;;;13.97;9.43;;;23.50;1.00;;;;;;5031568;28;20395;-72
2023/08/19 08:01:10;;;;;;;10.57;9.43;;;23.50;1.00;;;;;;5033445;28;20404;-72
2023/08/19 08:03:38;;;;;;;13.75;9.43;;;23.60;1.00;;;;;;5032843;28;20415;-72
2023/08/19 08:06:04;;;;;;;12.70;9.75;;;23.60;1.00;;;;;;5030245;28;20431;-72
2023/08/19 08:08:29;;;;;;;9.93;9.00;;;23.70;1.00;;;;;;5033710;28;20419;-72
2023/08/19 08:10:55;;;;;;;14.10;9.00;;;23.70;1.00;;;;;;5031124;28;20401;-72
2023/08/19 08:13:21;;;;;;;11.15;8.60;;;23.80;1.00;;;;;;5032743;28;20492;-73
2023/08/19 08:15:47;;;;;;;12.70;9.02;;;23.80;1.00;;;;;;5016414;28;20494;-72
2023/08/19 08:18:13;;;;;;;13.15;9.25;;;23.90;1.00;;;;;;5034147;28;20414;-72
2023/08/19 08:20:39;;;;;;;12.55;8.85;;;23.90;1.00;;;;;;5034466;28;20410;-72
2023/08/19 08:23:05;;;;;;;10.43;9.23;;;23.90;1.00;;;;;;5034336;28;20777;-72
2023/08/19 08:25:31;;;;;;;12.05;9.40;;;24.00;1.00;;;;;;5034877;28;20513;-72
2023/08/19 08:27:57;;;;;;;12.17;10.10;;;24.10;1.00;;;;;;5034206;28;20937;-72
2023/08/19 08:30:22;;;;;;;13.10;10.07;;;24.10;1.00;;;;;;5036116;28;20474;-72
2023/08/19 08:32:49;;;;;;;11.63;10.35;;;24.20;1.00;;;;;;5035531;28;20963;-72
2023/08/19 08:35:14;;;;;;;11.23;9.70;;;24.30;1.00;;;;;;5017384;28;20410;-72
2023/08/19 08:37:40;;;;;;;12.10;9.50;;;24.30;1.00;;;;;;5031155;28;20405;-72
2023/08/19 08:40:07;;;;;;;11.55;9.60;;;24.30;1.00;;;;;;5031117;28;20407;-72
2023/08/19 08:42:33;;;;;;;11.75;9.05;;;24.40;1.00;;;;;;5032282;28;20897;-72
2023/08/19 08:44:59;;;;;;;9.85;8.60;;;24.40;1.00;;;;;;5014112;28;20449;-72
2023/08/19 08:47:26;;;;;;;8.85;7.95;;;24.50;1.00;;;;;;5014957;28;20422;-71
2023/08/19 08:49:53;;;;;;;9.47;8.00;;;24.60;1.00;;;;;;5032120;28;20827;-71
2023/08/19 08:52:20;;;;;;;8.30;6.85;;;24.60;1.00;;;;;;5030809;28;20509;-72
2023/08/19 08:54:51;;;;;;;12.63;6.88;;;24.70;1.00;;;;;;5033983;28;20814;-72
2023/08/19 08:57:16;;;;;;;8.52;6.53;;;24.70;1.00;;;;;;5044797;28;20411;-72
2023/08/19 08:59:43;;;;;;;9.38;6.45;;;24.70;99.90;;;;;;5034969;28;20463;-72
2023/08/19 09:02:12;;;;;;;9.82;6.70;;;24.70;99.90;;;;;;5047160;28;20420;-72
2023/08/19 09:04:40;;;;;;;8.70;6.25;;;24.70;99.90;;;;;;5045220;28;20402;-72
2023/08/19 09:07:12;;;;;;;8.13;6.00;;;24.70;99.90;;;;;;5039045;28;20893;-73
2023/08/19 09:09:40;;;;;;;10.05;6.00;;;24.80;99.90;;;;;;5038829;28;21164;-72
2023/08/19 09:12:11;;;;;;;8.93;5.82;;;24.90;99.90;;;;;;5000045;28;20418;-72
2023/08/19 09:14:43;;;;;;;10.43;5.80;;;25.00;99.90;;;;;;5030910;28;20405;-72
2023/08/19 09:17:14;;;;;;;8.63;5.97;;;25.10;99.90;;;;;;5037211;28;20471;-72
2023/08/19 09:19:40;;;;;;;7.88;6.13;;;25.30;99.90;;;;;;5029762;28;20405;-73
2023/08/19 09:22:14;;;;;;;7.40;6.03;;;25.50;99.90;;;;;;5044520;28;20486;-72
2023/08/19 09:24:40;;;;;;;9.73;5.70;;;25.80;99.90;;;;;;5041006;28;20420;-72
2023/08/19 09:27:06;;;;;;;7.85;5.43;;;26.10;99.90;;;;;;5046026;28;20429;-73
2023/08/19 09:29:33;;;;;;;6.87;5.30;;;26.30;99.90;;;;;;5029111;28;20408;-72
2023/08/19 09:31:59;;;;;;;8.45;5.07;;;26.50;99.90;;;;;;5039786;28;20405;-73
2023/08/19 09:34:25;;;;;;;8.90;5.10;;;26.70;84.80;;;;;;5043505;28;20405;-72
2023/08/19 09:36:55;;;;;;;8.45;4.88;;;26.90;99.90;;;;;;5030577;28;20503;-73
2023/08/19 09:39:24;;;;;;;7.45;5.00;;;27.20;28.20;;;;;;5034482;28;20472;-72
2023/08/19 09:41:49;;;;;;;9.03;4.97;;;27.40;99.90;;;;;;5028658;28;20417;-73
2023/08/19 09:44:15;;;;;;;8.88;4.80;;;27.60;99.90;;;;;;5029922;28;20849;-73
2023/08/19 09:46:44;;;;;;;8.45;4.47;;;27.90;91.60;;;;;;5029614;28;20423;-71
2023/08/19 09:49:10;;;;;;;7.83;4.73;;;28.20;99.90;;;;;;5029372;28;20494;-72
2023/08/19 09:51:36;;;;;;;7.88;5.30;;;28.20;1.00;;;;;;5029862;28;20829;-72
2023/08/19 09:54:11;;;;;;;6.67;5.13;;;28.10;99.90;;;;;;5028540;28;20999;-72
2023/08/19 09:56:37;;;;;;;8.07;5.07;;;28.10;56.10;;;;;;5031562;28;20411;-72
2023/08/19 09:59:03;;;;;;;7.10;5.97;;;27.90;99.90;;;;;;5031715;28;20410;-73
2023/08/19 10:01:28;;;;;;;6.83;5.40;;;27.90;1.00;;;;;;5031271;28;20415;-73
2023/08/19 10:03:54;;;;;;;7.20;5.10;;;27.90;99.90;;;;;;5038080;28;20430;-73
2023/08/19 10:06:34;;;;;;;6.53;4.88;;;27.90;1.00;;;;;;5032265;28;20506;-72
2023/08/19 10:09:04;;;;;;;7.43;5.45;;;27.90;1.00;;;;;;5034347;28;20440;-72
2023/08/19 10:11:31;;;;;;;6.85;4.93;;;27.80;99.90;;;;;;5030911;28;20403;-72
2023/08/19 10:14:02;;;;;;;7.40;5.47;;;27.80;47.20;;;;;;5035187;28;20427;-73
2023/08/19 10:16:31;;;;;;;6.97;5.65;;;27.80;99.90;;;;;;5033039;28;20481;-73
2023/08/19 10:18:58;;;;;;;10.85;6.15;;;27.80;1.00;;;;;;5032652;28;20791;-73
2023/08/19 10:21:25;;;;;;;9.63;5.70;;;27.80;99.90;;;;;;5032356;28;20411;-74
2023/08/19 10:23:51;;;;;;;6.95;5.47;;;27.90;77.20;;;;;;5027777;28;20418;-73
2023/08/19 10:26:17;;;;;;;9.82;6.00;;;28.10;99.90;;;;;;5026439;28;20473;-73
2023/08/19 10:29:04;;;;;;;8.45;5.47;;;28.40;1.00;;;;;;5021612;28;20426;-73
2023/08/19 10:31:30;;;;;;;8.88;5.55;;;28.80;1.00;;;;;;5030919;28;20504;-73
2023/08/19 10:33:56;;;;;;;9.33;5.90;;;29.00;99.90;;;;;;5028820;28;20611;-73
2023/08/19 10:36:27;;;;;;;8.73;6.13;;;29.10;1.00;;;;;;5029851;28;20961;-73
2023/08/19 10:39:00;;;;;;;8.23;5.53;;;29.00;1.00;;;;;;5032678;28;20439;-73
2023/08/19 10:41:29;;;;;;;8.50;6.32;;;28.90;1.00;;;;;;5029488;28;20421;-72
2023/08/19 10:43:55;;;;;;;8.05;6.40;;;28.80;99.90;;;;;;5027903;28;20407;-72
2023/08/19 10:46:29;;;;;;;9.60;6.60;;;28.50;99.90;;;;;;5019406;28;20442;-73
2023/08/19 10:48:55;;;;;;;9.05;6.57;;;28.20;99.90;;;;;;5027251;28;20411;-73
2023/08/19 10:51:40;;;;;;;9.57;6.55;;;28.00;99.90;;;;;;5030693;28;20481;-72
2023/08/19 10:54:06;;;;;;;10.57;7.13;;;27.70;1.00;;;;;;5015909;28;20410;-70
2023/08/19 10:56:32;;;;;;;9.75;6.93;;;27.60;99.90;;;;;;5026839;28;20411;-72
2023/08/19 10:58:59;;;;;;;10.53;7.37;;;27.40;1.00;;;;;;5024491;28;20417;-72
2023/08/19 11:01:30;;;;;;;10.02;7.60;;;27.20;99.90;;;;;;5032124;28;20422;-73
2023/08/19 11:03:58;;;;;;;10.50;8.40;;;27.10;1.00;;;;;;5035292;28;20551;-73
2023/08/19 11:06:29;;;;;;;9.93;7.95;;;26.90;1.00;;;;;;5030362;28;20438;-73
2023/08/19 11:08:58;;;;;;;11.43;7.82;;;26.80;99.90;;;;;;5035961;28;20551;-73
2023/08/19 11:11:24;;;;;;;10.27;8.10;;;26.70;99.90;;;;;;5028119;28;20450;-73
2023/08/19 11:13:49;;;;;;;13.20;8.50;;;26.70;1.00;;;;;;5031878;28;20507;-73
2023/08/19 11:16:15;;;;;;;9.40;7.87;;;27.00;1.00;;;;;;5030887;28;20970;-74
2023/08/19 11:18:41;;;;;;;9.00;7.53;;;27.70;1.00;;;;;;5035662;28;20382;-74
2023/08/19 11:21:07;;;;;;;11.43;7.03;;;28.00;93.30;;;;;;5031553;28;20533;-74
2023/08/19 11:23:33;;;;;;;10.38;7.07;;;28.20;92.70;;;;;;5027650;28;20454;-74
2023/08/19 11:25:58;;;;;;;9.35;7.65;;;28.30;1.00;;;;;;5029922;28;20507;-73
2023/08/19 11:28:25;;;;;;;8.93;7.40;;;28.10;99.90;;;;;;5035501;28;20402;-72
2023/08/19 11:30:51;;;;;;;10.88;7.03;;;27.90;99.90;;;;;;5031165;28;20792;-72
2023/08/19 11:33:18;;;;;;;8.67;6.90;;;27.80;99.90;;;;;;5032247;28;20417;-72
2023/08/19 11:35:45;;;;;;;11.63;7.30;;;27.70;99.90;;;;;;5030215;28;20426;-72
2023/08/19 11:38:17;;;;;;;9.90;7.50;;;27.60;99.90;;;;;;5032581;28;20953;-72
2023/08/19 11:40:43;;;;;;;12.23;8.38;;;27.50;99.90;;;;;;5029423;28;20537;-73
2023/08/19 11:43:09;;;;;;;9.67;7.63;;;27.40;1.00;;;;;;5032802;28;20414;-72
2023/08/19 11:45:39;;;;;;;8.63;7.45;;;27.30;99.90;;;;;;5032614;28;20437;-72
2023/08/19 11:48:05;;;;;;;11.40;7.88;;;27.30;1.00;;;;;;5016012;28;20420;-73
2023/08/19 11:50:34;;;;;;;11.00;7.50;;;27.30;99.90;;;;;;5032450;28;20403;-73
2023/08/19 11:53:03;;;;;;;10.30;7.75;;;27.40;1.00;;;;;;5033181;28;20419;-73
2023/08/19 11:55:29;;;;;;;9.80;7.45;;;27.60;1.00;;;;;;5032107;28;20509;-73
2023/08/19 11:57:55;;;;;;;9.35;6.68;;;27.80;99.90;;;;;;5029591;28;20420;-72
2023/08/19 12:00:24;;;;;;;8.60;6.30;;;28.20;99.90;;;;;;5026302;28;20403;-72
2023/08/19 12:02:50;;;;;;;12.30;7.28;;;28.50;99.90;;;;;;5033070;28;20445;-73
2023/08/19 12:05:23;;;;;;;8.03;6.33;;;28.60;99.90;;;;;;5038521;28;20793;-73
2023/08/19 12:07:49;;;;;;;9.88;6.45;;;28.70;99.90;;;;;;5044069;28;21264;-73
2023/08/19 12:10:14;;;;;;;7.87;6.70;;;28.70;87.50;;;;;;5037940;28;20422;-73
2023/08/19 12:12:56;;;;;;;8.60;6.55;;;28.80;1.00;;;;;;5016404;28;20437;-73
2023/08/19 12:15:22;;;;;;;11.20;7.00;;;28.80;99.90;;;;;;5041722;28;20424;-73
2023/08/19 12:17:47;;;;;;;36.00;8.67;;;28.90;99.90;;;;;;5048092;28;20401;-73
2023/08/19 12:20:13;;;;;;;30.73;8.63;;;29.00;99.90;;;;;;5047683;28;20785;-73
2023/08/19 12:22:38;;;;;;;12.80;8.00;;;28.90;1.00;;;;;;5041462;28;20399;-72
2023/08/19 12:25:05;;;;;;;10.02;7.72;;;28.60;1.00;;;;;;5029576;28;20900;-73
2023/08/19 12:27:30;;;;;;;11.63;8.10;;;28.50;1.00;;;;;;5039412;28;20930;-72
2023/08/19 12:29:56;;;;;;;11.95;8.98;;;28.50;1.00;;;;;;5046231;28;20401;-73
2023/08/19 12:32:21;;;;;;;13.35;9.02;;;28.40;1.00;;;;;;5033868;28;20407;-73
2023/08/19 12:34:47;;;;;;;9.10;7.80;;;28.40;30.90;;;;;;5040360;28;20535;-73